createdAt,value
2019-05-07T00:01:24.281Z,5.70
2019-05-07T00:03:55.993Z,5.80
2019-05-07T00:06:27.825Z,5.67
2019-05-07T00:08:59.543Z,6.60
2019-05-07T00:11:33.114Z,6.37
2019-05-07T00:14:05.209Z,6.47
2019-05-07T00:16:37.073Z,6.50
2019-05-07T00:19:08.966Z,7.47
2019-05-07T00:21:42.285Z,7.70
2019-05-07T00:24:14.405Z,7.20
2019-05-07T00:26:46.125Z,7.40
2019-05-07T00:29:17.885Z,8.13
2019-05-07T00:31:51.911Z,8.37
2019-05-07T00:34:27.609Z,7.50
2019-05-07T00:37:15.346Z,7.90
2019-05-07T00:40:03.886Z,9.00
2019-05-07T00:42:55.299Z,9.00
2019-05-07T00:45:37.726Z,9.07
2019-05-07T00:48:09.452Z,9.70
2019-05-07T00:50:43.136Z,10.27
2019-05-07T00:53:14.952Z,10.53
2019-05-07T00:55:46.681Z,11.57
2019-05-07T00:58:18.388Z,11.40
2019-05-07T01:00:50.116Z,11.00
2019-05-07T01:03:22.253Z,12.47
2019-05-07T01:05:54.234Z,13.43
2019-05-07T01:08:26.034Z,13.00
2019-05-07T01:10:57.918Z,11.70
2019-05-07T01:13:29.648Z,11.87
2019-05-07T01:16:02.537Z,12.23
2019-05-07T01:18:34.392Z,13.17
2019-05-07T01:21:06.127Z,12.53
2019-05-07T01:23:37.844Z,13.80
2019-05-07T01:26:09.611Z,13.03
2019-05-07T01:28:59.655Z,12.57
2019-05-07T01:31:39.574Z,13.13
2019-05-07T01:34:23.163Z,13.20
2019-05-07T01:36:55.106Z,13.73
2019-05-07T01:39:26.941Z,12.87
2019-05-07T01:41:58.676Z,12.57
2019-05-07T01:44:32.620Z,12.63
2019-05-07T01:47:04.340Z,13.43
2019-05-07T01:49:36.038Z,13.50
2019-05-07T01:52:07.767Z,13.77
2019-05-07T01:54:39.666Z,13.43
2019-05-07T01:57:12.242Z,14.30
2019-05-07T01:59:44.345Z,14.67
2019-05-07T02:02:25.258Z,15.27
2019-05-07T02:05:07.629Z,15.23
2019-05-07T02:07:44.402Z,13.90
2019-05-07T02:10:26.321Z,13.47
2019-05-07T02:12:58.139Z,14.67
2019-05-07T02:15:32.089Z,14.30
2019-05-07T02:18:03.711Z,14.67
2019-05-07T02:20:36.085Z,13.57
2019-05-07T02:23:07.889Z,13.93
2019-05-07T02:25:41.849Z,13.00
2019-05-07T02:28:13.546Z,13.33
2019-05-07T02:30:45.312Z,14.20
2019-05-07T02:33:17.039Z,14.83
2019-05-07T02:35:49.043Z,12.97
2019-05-07T02:38:28.866Z,13.70
2019-05-07T02:41:06.577Z,13.33
2019-05-07T02:43:38.303Z,14.10
2019-05-07T02:46:31.835Z,16.47
2019-05-07T02:49:08.014Z,16.10
2019-05-07T02:51:47.366Z,15.60
2019-05-07T02:54:24.700Z,15.13
2019-05-07T02:56:56.494Z,15.33
2019-05-07T02:59:28.345Z,16.87
2019-05-07T03:02:03.358Z,16.07
2019-05-07T03:04:33.877Z,16.17
2019-05-07T03:07:05.600Z,17.10
2019-05-07T03:09:37.424Z,15.63
2019-05-07T03:12:09.422Z,15.53
2019-05-07T03:14:43.826Z,15.97
2019-05-07T03:17:15.100Z,16.33
2019-05-07T03:19:48.858Z,16.70
2019-05-07T03:22:23.202Z,17.97
2019-05-07T03:24:59.182Z,17.83
2019-05-07T03:27:34.195Z,18.37
2019-05-07T03:30:17.588Z,16.43
2019-05-07T03:33:16.132Z,17.90
2019-05-07T03:35:55.452Z,17.07
2019-05-07T03:38:24.337Z,17.67
2019-05-07T03:40:56.234Z,16.90
2019-05-07T03:43:27.950Z,19.97
2019-05-07T03:46:08.760Z,18.47
2019-05-07T03:48:43.939Z,17.93
2019-05-07T03:51:14.974Z,18.20
2019-05-07T03:53:46.825Z,18.23
2019-05-07T03:56:18.565Z,18.30
2019-05-07T03:58:52.689Z,18.93
2019-05-07T04:01:24.214Z,18.30
2019-05-07T04:03:56.382Z,17.80
2019-05-07T04:06:28.153Z,17.77
2019-05-07T04:08:59.861Z,18.90
2019-05-07T04:11:33.687Z,18.40
2019-05-07T04:14:05.536Z,18.73
2019-05-07T04:16:37.553Z,19.07
2019-05-07T04:19:09.267Z,18.03
2019-05-07T04:21:43.316Z,18.83
2019-05-07T04:24:37.265Z,18.43
2019-05-07T04:27:16.893Z,18.20
2019-05-07T04:29:48.618Z,18.50
2019-05-07T04:32:23.211Z,16.80
2019-05-07T04:35:18.994Z,17.93
2019-05-07T04:37:53.145Z,17.40
2019-05-07T04:40:24.482Z,16.37
2019-05-07T04:42:56.264Z,17.90
2019-05-07T04:45:28.086Z,17.93
2019-05-07T04:48:02.813Z,18.07
2019-05-07T04:50:42.978Z,17.17
2019-05-07T04:53:09.298Z,18.03
2019-05-07T04:55:43.073Z,16.03
2019-05-07T04:58:14.676Z,16.50
2019-05-07T05:00:46.385Z,16.97
2019-05-07T05:03:23.472Z,15.87
2019-05-07T05:05:54.379Z,15.43
2019-05-07T05:08:26.125Z,15.50
2019-05-07T05:10:58.023Z,14.50
2019-05-07T05:13:32.188Z,14.10
2019-05-07T05:16:22.774Z,13.57
2019-05-07T05:18:55.496Z,13.97
2019-05-07T05:21:49.748Z,13.47
2019-05-07T05:24:27.368Z,12.20
2019-05-07T05:26:59.189Z,12.13
2019-05-07T05:29:32.355Z,11.77
2019-05-07T05:32:04.800Z,10.83
2019-05-07T05:34:36.561Z,11.03
2019-05-07T05:37:13.002Z,9.33
2019-05-07T05:39:45.072Z,10.90
2019-05-07T05:42:27.346Z,10.37
2019-05-07T05:44:59.216Z,9.23
2019-05-07T05:47:32.847Z,7.90
2019-05-07T05:50:07.009Z,9.23
2019-05-07T05:52:46.327Z,8.07
2019-05-07T05:55:18.510Z,9.80
2019-05-07T05:58:13.413Z,7.40
2019-05-07T06:01:04.227Z,5.13
2019-05-07T06:03:45.284Z,5.70
2019-05-07T06:06:39.526Z,5.07
2019-05-07T06:09:27.036Z,7.90
2019-05-07T06:12:09.218Z,6.13
2019-05-07T06:14:54.039Z,6.13
2019-05-07T06:17:42.554Z,5.77
2019-05-07T06:20:37.468Z,5.07
2019-05-07T06:23:28.884Z,5.23
2019-05-07T06:26:04.832Z,5.50
2019-05-07T06:28:34.360Z,4.93
2019-05-07T06:31:06.317Z,5.33
2019-05-07T06:33:38.101Z,4.87
2019-05-07T06:36:12.361Z,4.70
2019-05-07T06:38:49.833Z,5.33
2019-05-07T06:41:41.825Z,4.20
2019-05-07T06:44:17.646Z,3.37
2019-05-07T06:46:49.581Z,3.30
2019-05-07T06:49:22.269Z,3.77
2019-05-07T06:51:54.399Z,3.60
2019-05-07T06:54:26.141Z,3.52
2019-05-07T06:56:57.975Z,3.95
2019-05-07T06:59:38.104Z,3.75
2019-05-07T07:02:28.245Z,3.75
2019-05-07T07:05:12.769Z,3.55
2019-05-07T07:07:55.110Z,3.08
2019-05-07T07:10:46.597Z,3.27
2019-05-07T07:13:19.161Z,3.02
2019-05-07T07:15:52.178Z,2.60
2019-05-07T07:18:24.565Z,3.25
2019-05-07T07:20:56.401Z,3.13
2019-05-07T07:23:28.124Z,2.70
2019-05-07T07:26:00.000Z,2.50
2019-05-07T07:28:32.719Z,2.90
2019-05-07T07:31:26.150Z,2.43
2019-05-07T07:33:59.033Z,3.13
2019-05-07T07:36:34.866Z,2.00
2019-05-07T07:39:06.884Z,2.27
2019-05-07T07:41:42.241Z,2.37
2019-05-07T07:44:14.117Z,2.55
2019-05-07T07:46:45.865Z,2.00
2019-05-07T07:49:17.744Z,1.87
2019-05-07T07:51:49.485Z,1.70
2019-05-07T07:54:22.710Z,2.62
2019-05-07T07:57:09.814Z,2.08
2019-05-07T08:00:02.428Z,2.10
2019-05-07T08:02:39.594Z,2.50
2019-05-07T08:05:12.525Z,1.93
2019-05-07T08:07:45.173Z,2.30
2019-05-07T08:10:17.780Z,1.92
2019-05-07T08:12:49.520Z,1.62
2019-05-07T08:15:24.486Z,2.08
2019-05-07T08:17:55.282Z,1.47
2019-05-07T08:20:27.320Z,1.80
2019-05-07T08:22:59.072Z,2.23
2019-05-07T08:25:49.182Z,1.82
2019-05-07T08:28:23.110Z,1.90
2019-05-07T08:31:05.312Z,1.90
2019-05-07T08:33:44.596Z,1.90
2019-05-07T08:36:17.704Z,1.75
2019-05-07T08:38:52.757Z,1.60
2019-05-07T08:41:26.531Z,1.62
2019-05-07T08:44:11.740Z,1.65
2019-05-07T08:47:12.028Z,2.05
2019-05-07T08:49:43.691Z,2.33
2019-05-07T08:52:15.518Z,2.08
2019-05-07T08:54:47.257Z,2.10
2019-05-07T08:57:19.190Z,1.90
2019-05-07T08:59:58.408Z,2.15
2019-05-07T09:02:24.700Z,1.72
2019-05-07T09:04:56.469Z,2.33
2019-05-07T09:07:28.293Z,1.60
2019-05-07T09:10:02.294Z,2.92
2019-05-07T09:12:33.834Z,2.00
2019-05-07T09:15:06.534Z,2.17
2019-05-07T09:17:38.336Z,2.25
2019-05-07T09:20:12.590Z,1.90
2019-05-07T09:22:44.308Z,1.60
2019-05-07T09:25:16.337Z,1.47
2019-05-07T09:27:52.218Z,1.93
2019-05-07T09:30:46.356Z,1.87
2019-05-07T09:33:26.047Z,1.75
2019-05-07T09:35:57.967Z,1.82
2019-05-07T09:38:29.694Z,2.20
2019-05-07T09:41:02.767Z,2.08
2019-05-07T09:43:34.657Z,1.82
2019-05-07T09:46:06.397Z,2.45
2019-05-07T09:48:38.228Z,1.85
2019-05-07T09:51:12.152Z,1.15
2019-05-07T09:53:43.594Z,2.20
2019-05-07T09:56:15.641Z,1.45
2019-05-07T09:58:47.606Z,2.37
2019-05-07T10:01:19.429Z,1.57
2019-05-07T10:03:51.831Z,1.50
2019-05-07T10:06:24.145Z,1.17
2019-05-07T10:08:55.935Z,1.50
2019-05-07T10:11:39.139Z,1.25
2019-05-07T10:14:12.488Z,1.47
2019-05-07T10:17:07.416Z,1.60
2019-05-07T10:19:39.337Z,1.65
2019-05-07T10:22:12.627Z,1.57
2019-05-07T10:24:44.776Z,1.47
2019-05-07T10:28:17.307Z,1.70
2019-05-07T10:30:45.913Z,1.60
2019-05-07T10:33:17.813Z,2.00
2019-05-07T10:35:49.956Z,1.90
2019-05-07T10:38:21.978Z,1.15
2019-05-07T10:40:53.909Z,1.62
2019-05-07T10:43:25.774Z,1.67
2019-05-07T10:46:16.161Z,1.90
2019-05-07T10:49:07.564Z,1.40
2019-05-07T10:51:39.590Z,1.30
2019-05-07T10:54:12.602Z,1.30
2019-05-07T10:56:44.552Z,1.20
2019-05-07T10:59:16.277Z,1.45
2019-05-07T11:02:07.684Z,1.42
2019-05-07T11:04:42.891Z,2.58
2019-05-07T11:07:13.237Z,1.75
2019-05-07T11:09:44.977Z,1.30
2019-05-07T11:12:16.825Z,1.55
2019-05-07T11:14:48.545Z,1.60
2019-05-07T11:17:38.646Z,1.50
2019-05-07T11:20:12.366Z,1.30
2019-05-07T11:22:44.094Z,1.52
2019-05-07T11:25:15.813Z,1.87
2019-05-07T11:27:47.543Z,1.82
2019-05-07T11:30:19.760Z,1.98
2019-05-07T11:32:52.277Z,1.50
2019-05-07T11:35:24.356Z,1.52
2019-05-07T11:37:56.087Z,1.42
2019-05-07T11:40:28.093Z,2.60
2019-05-07T11:43:09.200Z,1.52
2019-05-07T11:45:48.734Z,1.77
2019-05-07T11:48:22.138Z,1.20
2019-05-07T11:51:06.600Z,1.05
2019-05-07T11:53:58.086Z,1.75
2019-05-07T11:56:29.932Z,1.60
2019-05-07T11:59:02.701Z,1.30
2019-05-07T12:01:46.703Z,1.57
2019-05-07T12:04:12.382Z,1.40
2019-05-07T12:06:43.568Z,1.37
2019-05-07T12:09:15.506Z,1.55
2019-05-07T12:11:47.223Z,1.67
2019-05-07T12:14:30.677Z,1.20
2019-05-07T12:16:52.684Z,1.70
2019-05-07T12:19:24.448Z,1.65
2019-05-07T12:21:56.361Z,1.75
2019-05-07T12:24:28.168Z,2.08
2019-05-07T12:26:59.871Z,1.50
2019-05-07T12:29:32.224Z,1.40
2019-05-07T12:32:28.876Z,1.60
2019-05-07T12:35:05.908Z,1.75
2019-05-07T12:37:37.756Z,2.17
2019-05-07T12:40:12.316Z,1.32
2019-05-07T12:42:45.566Z,1.55
2019-05-07T12:45:17.367Z,1.77
2019-05-07T12:47:49.138Z,1.98
2019-05-07T12:50:21.958Z,1.92
2019-05-07T12:53:02.271Z,1.85
2019-05-07T12:55:54.027Z,1.82
2019-05-07T12:58:25.924Z,2.05
2019-05-07T13:01:02.260Z,1.57
2019-05-07T13:03:36.501Z,1.70
2019-05-07T13:06:08.239Z,1.40
2019-05-07T13:08:41.837Z,1.80
2019-05-07T13:11:13.596Z,1.55
2019-05-07T13:13:45.308Z,1.95
2019-05-07T13:16:17.146Z,2.55
2019-05-07T13:18:48.857Z,1.90
2019-05-07T13:21:22.460Z,2.45
2019-05-07T13:23:54.408Z,1.87
2019-05-07T13:26:26.431Z,1.60
2019-05-07T13:28:58.136Z,1.50
2019-05-07T13:31:32.682Z,1.40
2019-05-07T13:34:04.739Z,1.33
2019-05-07T13:36:39.673Z,1.20
2019-05-07T13:39:23.498Z,1.40
2019-05-07T13:42:18.257Z,1.20
2019-05-07T13:44:59.864Z,1.70
2019-05-07T13:47:34.553Z,1.40
2019-05-07T13:50:06.749Z,2.50
2019-05-07T13:52:39.217Z,1.60
2019-05-07T13:55:12.861Z,1.77
2019-05-07T13:57:44.870Z,1.57
2019-05-07T14:00:25.679Z,2.50
2019-05-07T14:02:57.520Z,1.40
2019-05-07T14:05:29.340Z,1.60
2019-05-07T14:08:04.206Z,1.93
2019-05-07T14:10:34.983Z,2.47
2019-05-07T14:13:12.599Z,2.07
2019-05-07T14:15:43.026Z,1.60
2019-05-07T14:18:15.113Z,3.03
2019-05-07T14:20:46.932Z,1.70
2019-05-07T14:23:18.755Z,1.63
2019-05-07T14:25:52.567Z,1.20
2019-05-07T14:28:24.146Z,1.57
2019-05-07T14:30:55.985Z,1.43
2019-05-07T14:33:43.218Z,1.43
2019-05-07T14:36:18.385Z,2.60
2019-05-07T14:38:52.010Z,1.60
2019-05-07T14:41:25.679Z,1.57
2019-05-07T14:44:04.057Z,1.30
2019-05-07T14:46:49.786Z,1.60
2019-05-07T14:49:11.919Z,1.37
2019-05-07T14:51:43.613Z,2.00
2019-05-07T14:54:18.222Z,3.80
2019-05-07T14:56:49.301Z,1.27
2019-05-07T14:59:21.233Z,1.43
2019-05-07T15:01:53.157Z,2.27
2019-05-07T15:04:25.033Z,1.43
2019-05-07T15:06:56.812Z,1.63
2019-05-07T15:09:28.655Z,2.07
2019-05-07T15:12:02.214Z,1.77
2019-05-07T15:14:34.277Z,2.10
2019-05-07T15:17:22.245Z,1.83
2019-05-07T15:19:54.112Z,1.87
2019-05-07T15:22:49.102Z,2.50
2019-05-07T15:25:15.624Z,2.67
2019-05-07T15:27:49.045Z,2.00
2019-05-07T15:30:24.148Z,3.33
2019-05-07T15:32:55.980Z,1.50
2019-05-07T15:35:27.969Z,3.97
2019-05-07T15:37:59.741Z,2.47
2019-05-07T15:40:33.074Z,1.77
2019-05-07T15:43:05.057Z,3.00
2019-05-07T15:45:38.908Z,1.73
2019-05-07T15:48:12.534Z,61.87
2019-05-07T15:50:44.375Z,13.77
2019-05-07T15:53:36.112Z,2.40
2019-05-07T15:56:07.921Z,2.70
2019-05-07T15:58:39.745Z,1.67
2019-05-07T16:01:12.881Z,1.40
2019-05-07T16:03:45.715Z,2.07
2019-05-07T16:06:17.568Z,2.40
2019-05-07T16:08:51.724Z,1.47
2019-05-07T16:11:23.625Z,1.77
2019-05-07T16:14:14.342Z,2.17
2019-05-07T16:16:46.806Z,2.63
2019-05-07T16:19:27.295Z,1.63
2019-05-07T16:22:03.929Z,1.87
2019-05-07T16:24:35.740Z,2.30
2019-05-07T16:27:07.448Z,1.43
2019-05-07T16:29:39.233Z,1.70
2019-05-07T16:32:11.038Z,2.03
2019-05-07T16:34:43.061Z,2.63
2019-05-07T16:37:14.887Z,1.90
2019-05-07T16:39:46.705Z,2.20
2019-05-07T16:42:18.500Z,1.30
2019-05-07T16:44:52.206Z,1.60
2019-05-07T16:47:23.909Z,1.50
2019-05-07T16:49:55.765Z,1.70
2019-05-07T16:52:27.476Z,1.70
2019-05-07T16:54:59.193Z,2.77
2019-05-07T16:57:53.506Z,4.13
2019-05-07T17:00:32.689Z,1.83
2019-05-07T17:03:06.953Z,2.43
2019-05-07T17:05:38.780Z,2.50
2019-05-07T17:08:23.170Z,2.30
2019-05-07T17:10:55.275Z,2.30
2019-05-07T17:13:27.217Z,1.77
2019-05-07T17:16:00.132Z,7.97
2019-05-07T17:18:32.622Z,1.93
2019-05-07T17:21:04.599Z,1.37
2019-05-07T17:23:44.257Z,2.10
2019-05-07T17:26:11.720Z,2.10
2019-05-07T17:28:43.815Z,2.77
2019-05-07T17:31:15.601Z,1.67
2019-05-07T17:33:47.327Z,1.73
2019-05-07T17:36:22.489Z,2.73
2019-05-07T17:38:54.416Z,2.10
2019-05-07T17:41:27.395Z,2.00
2019-05-07T17:43:59.317Z,2.30
2019-05-07T17:46:32.337Z,2.40
2019-05-07T17:49:04.458Z,6.20
2019-05-07T17:51:44.897Z,2.13
2019-05-07T17:54:16.712Z,1.97
2019-05-07T17:56:48.552Z,1.93
2019-05-07T17:59:20.263Z,2.93
2019-05-07T18:02:09.949Z,1.47
2019-05-07T18:04:50.889Z,3.70
2019-05-07T18:07:17.896Z,2.77
2019-05-07T18:09:49.628Z,1.43
2019-05-07T18:12:22.503Z,2.03
2019-05-07T18:14:54.412Z,2.20
2019-05-07T18:17:43.806Z,2.03
2019-05-07T18:20:15.733Z,1.93
2019-05-07T18:22:47.556Z,2.20
2019-05-07T18:25:21.717Z,1.83
2019-05-07T18:27:53.608Z,4.10
2019-05-07T18:30:25.325Z,2.17
2019-05-07T18:33:18.383Z,1.53
2019-05-07T18:35:52.398Z,1.87
2019-05-07T18:38:24.162Z,2.27
2019-05-07T18:40:55.881Z,1.53
2019-05-07T18:43:27.747Z,2.30
2019-05-07T18:45:59.529Z,5.47
2019-05-07T18:48:31.277Z,2.53
2019-05-07T18:51:03.301Z,3.00
2019-05-07T18:53:35.053Z,4.23
2019-05-07T18:56:06.886Z,3.70
2019-05-07T18:58:38.626Z,3.30
2019-05-07T19:01:11.775Z,6.80
2019-05-07T19:03:43.518Z,4.13
2019-05-07T19:06:15.461Z,3.50
2019-05-07T19:08:47.269Z,3.30
2019-05-07T19:11:19.229Z,2.90
2019-05-07T19:13:52.467Z,2.80
2019-05-07T19:16:24.891Z,3.20
2019-05-07T19:18:56.845Z,70.63
2019-05-07T19:21:28.948Z,3.87
2019-05-07T19:24:02.273Z,2.20
2019-05-07T19:26:34.406Z,1.60
2019-05-07T19:29:06.662Z,1.83
2019-05-07T19:31:38.780Z,1.60
2019-05-07T19:34:12.340Z,2.23
2019-05-07T19:36:44.619Z,2.17
2019-05-07T19:39:16.661Z,2.40
2019-05-07T19:41:48.790Z,3.83
2019-05-07T19:44:20.815Z,2.67
2019-05-07T19:46:52.945Z,3.30
2019-05-07T19:49:25.064Z,5.27
2019-05-07T19:51:56.908Z,3.27
2019-05-07T19:54:28.776Z,2.63
2019-05-07T19:57:02.714Z,3.83
2019-05-07T19:59:34.423Z,1.90
2019-05-07T20:02:09.526Z,2.60
2019-05-07T20:04:42.755Z,2.00
2019-05-07T20:07:15.175Z,1.90
2019-05-07T20:09:47.130Z,2.80
2019-05-07T20:12:18.982Z,3.90
2019-05-07T20:14:51.715Z,2.00
2019-05-07T20:17:23.762Z,2.73
2019-05-07T20:19:56.082Z,4.13
2019-05-07T20:22:28.158Z,4.60
2019-05-07T20:25:13.248Z,2.20
2019-05-07T20:27:33.830Z,2.03
2019-05-07T20:30:06.428Z,2.67
2019-05-07T20:32:38.455Z,2.80
2019-05-07T20:35:10.597Z,2.43
2019-05-07T20:37:42.384Z,2.67
2019-05-07T20:40:14.430Z,2.53
2019-05-07T20:42:46.168Z,2.17
2019-05-07T20:45:17.948Z,2.23
2019-05-07T20:47:49.762Z,2.50
2019-05-07T20:50:22.325Z,2.30
2019-05-07T20:52:54.556Z,2.73
2019-05-07T20:55:38.151Z,2.37
2019-05-07T20:58:09.886Z,2.43
2019-05-07T21:00:43.417Z,3.70
2019-05-07T21:03:23.412Z,2.90
2019-05-07T21:05:54.872Z,2.80
2019-05-07T21:08:26.601Z,2.50
2019-05-07T21:10:58.360Z,3.10
2019-05-07T21:13:34.023Z,2.70
2019-05-07T21:16:03.953Z,2.87
2019-05-07T21:18:35.788Z,2.73
2019-05-07T21:21:07.617Z,2.70
2019-05-07T21:23:39.441Z,2.97
2019-05-07T21:26:13.112Z,2.83
2019-05-07T21:28:44.909Z,2.97
2019-05-07T21:31:16.656Z,3.07
2019-05-07T21:33:48.373Z,3.00
2019-05-07T21:36:20.092Z,3.03
2019-05-07T21:38:52.049Z,3.43
2019-05-07T21:41:23.966Z,3.00
2019-05-07T21:43:55.805Z,3.17
2019-05-07T21:46:27.529Z,3.10
2019-05-07T21:48:59.260Z,3.03
2019-05-07T21:51:31.205Z,3.33
2019-05-07T21:54:24.799Z,3.30
2019-05-07T21:57:05.078Z,4.40
2019-05-07T21:59:37.387Z,3.73
2019-05-07T22:02:13.833Z,4.57
2019-05-07T22:04:45.535Z,3.73
2019-05-07T22:07:17.284Z,3.50
2019-05-07T22:09:49.001Z,3.60
2019-05-07T22:12:22.624Z,3.50
2019-05-07T22:14:54.554Z,4.13
2019-05-07T22:17:26.302Z,4.30
2019-05-07T22:19:58.003Z,3.67
2019-05-07T22:22:31.874Z,3.63
2019-05-07T22:25:05.319Z,3.93
2019-05-07T22:27:37.388Z,3.93
2019-05-07T22:30:12.543Z,3.27
2019-05-07T22:32:52.815Z,3.60
2019-05-07T22:35:28.809Z,3.63
2019-05-07T22:38:00.644Z,4.20
2019-05-07T22:40:32.419Z,4.30
2019-05-07T22:43:04.172Z,3.83
2019-05-07T22:45:36.004Z,4.57
2019-05-07T22:48:07.843Z,5.00
2019-05-07T22:50:39.567Z,3.93
2019-05-07T22:53:12.577Z,4.03
2019-05-07T22:55:44.720Z,4.90
2019-05-07T22:58:38.388Z,4.27
2019-05-07T23:01:13.064Z,5.17
2019-05-07T23:03:44.810Z,4.27
2019-05-07T23:06:16.525Z,4.80
2019-05-07T23:08:48.257Z,5.23
2019-05-07T23:11:19.973Z,4.53
2019-05-07T23:13:54.407Z,4.63
2019-05-07T23:16:25.344Z,4.03
2019-05-07T23:18:57.071Z,4.37
2019-05-07T23:21:28.797Z,4.67
2019-05-07T23:24:00.516Z,4.90
2019-05-07T23:26:36.444Z,4.93
2019-05-07T23:29:05.852Z,4.77
2019-05-07T23:31:37.599Z,4.90
2019-05-07T23:34:09.412Z,5.40
2019-05-07T23:36:42.188Z,4.67
2019-05-07T23:39:16.417Z,4.77
2019-05-07T23:41:53.189Z,5.43
2019-05-07T23:44:24.933Z,5.07
2019-05-07T23:46:56.660Z,5.60
2019-05-07T23:49:28.485Z,6.03
2019-05-07T23:52:02.245Z,6.00
2019-05-07T23:54:33.847Z,5.23
2019-05-07T23:57:09.678Z,5.37
2019-05-07T23:59:39.407Z,6.17
